createdAt,value
2022-12-12T00:01:04.733Z,22.42
2022-12-12T00:03:31.854Z,22.25
2022-12-12T00:05:58.681Z,26.23
2022-12-12T00:08:25.254Z,22.13
2022-12-12T00:10:51.815Z,23.52
2022-12-12T00:13:18.460Z,24.50
2022-12-12T00:15:45.066Z,22.67
2022-12-12T00:18:11.646Z,24.23
2022-12-12T00:20:38.224Z,20.30
2022-12-12T00:23:05.037Z,27.67
2022-12-12T00:25:31.657Z,22.15
2022-12-12T00:27:59.973Z,22.67
2022-12-12T00:30:26.632Z,24.42
2022-12-12T00:32:54.143Z,23.83
2022-12-12T00:35:20.882Z,23.15
2022-12-12T00:37:47.459Z,24.98
2022-12-12T00:40:14.029Z,22.17
2022-12-12T00:42:40.555Z,22.83
2022-12-12T00:45:07.839Z,22.73
2022-12-12T00:47:34.380Z,24.27
2022-12-12T00:50:01.009Z,22.27
2022-12-12T00:52:27.564Z,25.38
2022-12-12T00:54:54.123Z,19.15
2022-12-12T00:57:20.676Z,21.23
2022-12-12T00:59:47.222Z,21.08
2022-12-12T01:02:13.776Z,22.98
2022-12-12T01:04:40.380Z,22.20
2022-12-12T01:07:06.923Z,21.02
2022-12-12T01:09:34.274Z,22.80
2022-12-12T01:12:00.828Z,23.35
2022-12-12T01:14:27.405Z,23.40
2022-12-12T01:16:55.471Z,26.08
2022-12-12T01:19:22.014Z,25.17
2022-12-12T01:21:48.718Z,23.67
2022-12-12T01:24:15.350Z,24.38
2022-12-12T01:26:41.951Z,25.60
2022-12-12T01:29:08.521Z,26.00
2022-12-12T01:31:35.104Z,24.70
2022-12-12T01:34:01.761Z,27.05
2022-12-12T01:36:28.371Z,26.77
2022-12-12T01:38:56.858Z,24.92
2022-12-12T01:41:24.017Z,25.95
2022-12-12T01:43:50.636Z,26.25
2022-12-12T01:46:40.585Z,26.70
2022-12-12T01:49:25.164Z,24.55
2022-12-12T01:52:03.584Z,27.63
2022-12-12T01:54:34.858Z,29.10
2022-12-12T01:57:05.308Z,27.85
2022-12-12T01:59:33.747Z,24.55
2022-12-12T02:02:01.056Z,24.25
2022-12-12T02:04:28.695Z,25.30
2022-12-12T02:06:55.974Z,24.98
2022-12-12T02:09:25.058Z,22.35
2022-12-12T02:11:55.370Z,24.20
2022-12-12T02:14:39.059Z,24.85
2022-12-12T02:17:25.896Z,24.55
2022-12-12T02:20:39.403Z,26.05
2022-12-12T02:23:14.904Z,30.52
2022-12-12T02:26:00.378Z,25.88
2022-12-12T02:28:29.848Z,26.73
2022-12-12T02:31:34.043Z,24.03
2022-12-12T02:34:10.223Z,23.13
2022-12-12T02:36:48.935Z,26.42
2022-12-12T02:39:21.188Z,22.13
2022-12-12T02:41:53.975Z,25.63
2022-12-12T02:44:37.615Z,26.30
2022-12-12T02:47:09.134Z,28.50
2022-12-12T02:49:48.173Z,25.60
2022-12-12T02:52:16.976Z,25.33
2022-12-12T02:54:43.984Z,22.98
2022-12-12T02:57:19.846Z,25.13
2022-12-12T02:59:52.966Z,22.83
2022-12-12T03:02:53.691Z,23.75
2022-12-12T03:06:00.526Z,25.58
2022-12-12T03:08:39.471Z,18.98
2022-12-12T03:11:17.197Z,22.15
2022-12-12T03:14:06.892Z,23.38
2022-12-12T03:16:44.876Z,18.00
2022-12-12T03:19:48.368Z,22.73
2022-12-12T03:22:41.568Z,24.30
2022-12-12T03:25:25.135Z,24.60
2022-12-12T03:28:06.246Z,24.88
2022-12-12T03:30:40.624Z,26.80
2022-12-12T03:33:30.922Z,26.63
2022-12-12T03:36:21.714Z,27.75
2022-12-12T03:38:57.334Z,29.65
2022-12-12T03:41:34.180Z,25.10
2022-12-12T03:44:07.691Z,24.55
2022-12-12T03:46:42.984Z,24.90
2022-12-12T03:49:20.815Z,24.52
2022-12-12T03:52:02.346Z,26.77
2022-12-12T03:54:47.128Z,24.70
2022-12-12T03:57:30.045Z,24.75
2022-12-12T04:00:06.911Z,23.63
2022-12-12T04:02:53.368Z,25.20
2022-12-12T04:08:09.811Z,22.02
2022-12-12T04:11:04.794Z,23.77
2022-12-12T04:13:55.755Z,19.83
2022-12-12T04:16:35.545Z,22.05
2022-12-12T04:19:10.980Z,23.02
2022-12-12T04:22:03.433Z,22.30
2022-12-12T04:24:35.790Z,21.25
2022-12-12T04:27:09.132Z,22.23
2022-12-12T04:29:47.795Z,21.90
2022-12-12T04:32:26.752Z,23.25
2022-12-12T04:35:12.356Z,23.35
2022-12-12T04:37:43.908Z,23.58
2022-12-12T04:40:14.511Z,21.45
2022-12-12T04:42:50.769Z,22.63
2022-12-12T04:45:21.834Z,21.77
2022-12-12T04:47:52.093Z,20.20
2022-12-12T04:50:22.464Z,22.17
2022-12-12T04:52:52.739Z,16.63
2022-12-12T04:55:24.499Z,23.05
2022-12-12T04:57:54.747Z,24.90
2022-12-12T05:00:24.050Z,21.10
2022-12-12T05:02:59.714Z,21.55
2022-12-12T05:05:35.159Z,22.75
2022-12-12T05:08:11.176Z,19.70
2022-12-12T05:10:53.619Z,24.35
2022-12-12T05:13:23.141Z,21.58
2022-12-12T05:15:53.663Z,23.57
2022-12-12T05:20:47.152Z,22.67
2022-12-12T05:23:13.887Z,24.17
2022-12-12T05:25:40.485Z,21.95
2022-12-12T05:28:07.113Z,23.15
2022-12-12T05:30:33.785Z,22.58
2022-12-12T05:33:00.605Z,21.08
2022-12-12T05:35:27.582Z,26.63
2022-12-12T05:37:54.227Z,24.17
2022-12-12T05:40:21.865Z,25.00
2022-12-12T05:42:48.854Z,24.20
2022-12-12T05:45:15.831Z,24.83
2022-12-12T05:47:42.659Z,22.52
2022-12-12T05:50:09.934Z,23.48
2022-12-12T05:52:37.200Z,23.85
2022-12-12T05:55:04.666Z,22.75
2022-12-12T05:57:31.238Z,25.35
2022-12-12T05:59:57.810Z,20.83
2022-12-12T06:02:24.457Z,20.48
2022-12-12T06:04:51.091Z,20.83
2022-12-12T06:07:17.660Z,21.63
2022-12-12T06:09:44.234Z,21.77
2022-12-12T06:12:10.797Z,22.92
2022-12-12T06:14:37.395Z,18.00
2022-12-12T06:17:03.954Z,22.33
2022-12-12T06:19:30.522Z,23.63
2022-12-12T06:21:57.107Z,23.67
2022-12-12T06:24:23.649Z,21.83
2022-12-12T06:26:50.280Z,23.27
2022-12-12T06:29:16.839Z,21.25
2022-12-12T06:31:43.525Z,18.75
2022-12-12T06:34:10.284Z,21.33
2022-12-12T06:36:36.863Z,24.40
2022-12-12T06:39:03.765Z,23.80
2022-12-12T06:41:31.725Z,20.95
2022-12-12T06:43:58.318Z,19.42
2022-12-12T06:46:27.673Z,21.33
2022-12-12T06:48:56.165Z,21.42
2022-12-12T06:51:44.455Z,19.90
2022-12-12T06:54:13.519Z,20.63
2022-12-12T06:56:46.305Z,21.60
2022-12-12T06:59:15.476Z,19.00
2022-12-12T07:01:42.170Z,20.92
2022-12-12T07:04:11.265Z,22.05
2022-12-12T07:06:37.895Z,22.85
2022-12-12T07:09:04.593Z,21.27
2022-12-12T07:11:31.173Z,20.30
2022-12-12T07:13:57.843Z,21.13
2022-12-12T07:16:24.525Z,19.70
2022-12-12T07:18:51.366Z,20.67
2022-12-12T07:21:20.177Z,20.77
2022-12-12T07:23:46.920Z,22.00
2022-12-12T07:26:17.490Z,25.08
2022-12-12T07:28:44.795Z,24.40
2022-12-12T07:31:14.215Z,22.88
2022-12-12T07:33:44.199Z,23.07
2022-12-12T07:36:12.311Z,23.08
2022-12-12T07:38:39.722Z,24.55
2022-12-12T07:41:12.439Z,24.23
2022-12-12T07:43:43.689Z,24.50
2022-12-12T07:46:18.092Z,27.98
2022-12-12T07:48:44.763Z,22.95
2022-12-12T07:51:12.251Z,25.80
2022-12-12T07:53:38.973Z,27.15
2022-12-12T07:56:07.638Z,23.60
2022-12-12T07:58:35.516Z,27.10
2022-12-12T08:01:13.964Z,25.92
2022-12-12T08:03:42.132Z,25.73
2022-12-12T08:06:08.831Z,27.38
2022-12-12T08:08:35.611Z,27.00
2022-12-12T08:11:07.625Z,26.17
2022-12-12T08:13:36.608Z,23.10
2022-12-12T08:16:04.729Z,24.17
2022-12-12T08:18:31.820Z,27.05
2022-12-12T08:20:58.406Z,24.73
2022-12-12T08:23:24.999Z,23.90
2022-12-12T08:25:51.624Z,25.52
2022-12-12T08:28:18.502Z,22.48
2022-12-12T08:30:49.938Z,23.50
2022-12-12T08:33:16.590Z,22.05
2022-12-12T08:35:43.163Z,22.50
2022-12-12T08:38:09.734Z,29.58
2022-12-12T08:40:36.414Z,23.20
2022-12-12T08:43:02.986Z,22.67
2022-12-12T08:45:29.573Z,22.67
2022-12-12T08:47:56.129Z,26.23
2022-12-12T08:50:22.713Z,21.98
2022-12-12T08:52:49.295Z,21.58
2022-12-12T08:55:16.119Z,22.70
2022-12-12T08:57:42.800Z,22.33
2022-12-12T09:00:10.660Z,20.55
2022-12-12T09:02:37.348Z,23.17
2022-12-12T09:05:04.263Z,23.38
2022-12-12T09:07:30.975Z,21.30
2022-12-12T09:09:57.619Z,20.63
2022-12-12T09:12:24.261Z,21.17
2022-12-12T09:14:50.826Z,20.00
2022-12-12T09:17:17.419Z,16.98
2022-12-12T09:19:45.714Z,21.67
2022-12-12T09:22:12.724Z,22.80
2022-12-12T09:24:39.313Z,19.73
2022-12-12T09:27:05.898Z,22.15
2022-12-12T09:29:32.614Z,20.63
2022-12-12T09:31:59.197Z,21.17
2022-12-12T09:34:26.455Z,20.13
2022-12-12T09:36:53.062Z,20.63
2022-12-12T09:39:19.656Z,20.23
2022-12-12T09:41:47.145Z,20.52
2022-12-12T09:44:18.739Z,21.92
2022-12-12T09:46:55.567Z,18.67
2022-12-12T09:49:31.413Z,21.27
2022-12-12T09:51:59.977Z,20.27
2022-12-12T09:54:27.408Z,20.20
2022-12-12T09:57:30.977Z,20.95
2022-12-12T10:00:04.829Z,21.67
2022-12-12T10:02:53.933Z,21.88
2022-12-12T10:09:19.683Z,18.83
2022-12-12T10:11:50.153Z,19.25
2022-12-12T10:14:31.612Z,21.67
2022-12-12T10:16:59.969Z,22.58
2022-12-12T10:19:32.936Z,19.60
2022-12-12T10:22:08.669Z,22.48
2022-12-12T10:24:53.499Z,23.58
2022-12-12T10:27:20.099Z,20.50
2022-12-12T10:29:48.613Z,19.35
2022-12-12T10:32:43.198Z,22.25
2022-12-12T10:35:26.584Z,18.98
2022-12-12T10:38:25.871Z,20.73
2022-12-12T10:41:16.758Z,20.98
2022-12-12T10:43:55.951Z,22.13
2022-12-12T10:46:30.566Z,21.50
2022-12-12T10:48:57.830Z,21.63
2022-12-12T10:51:27.803Z,19.95
2022-12-12T10:53:54.974Z,24.40
2022-12-12T10:56:24.676Z,20.17
2022-12-12T10:58:57.829Z,21.70
2022-12-12T11:04:25.412Z,22.85
2022-12-12T11:06:55.231Z,21.50
2022-12-12T11:09:24.988Z,22.15
2022-12-12T11:12:01.097Z,23.77
2022-12-12T11:14:39.808Z,22.60
2022-12-12T11:17:26.952Z,21.50
2022-12-12T11:19:56.129Z,22.30
2022-12-12T11:22:23.169Z,21.75
2022-12-12T11:24:51.271Z,24.15
2022-12-12T11:27:22.969Z,22.08
2022-12-12T11:29:54.382Z,20.95
2022-12-12T11:32:28.802Z,22.85
2022-12-12T11:34:59.115Z,24.35
2022-12-12T11:37:36.743Z,19.65
2022-12-12T11:40:04.557Z,20.17
2022-12-12T11:42:32.959Z,20.88
2022-12-12T11:45:22.843Z,21.52
2022-12-12T11:47:49.715Z,22.02
2022-12-12T11:50:23.021Z,19.40
2022-12-12T11:52:52.944Z,20.17
2022-12-12T11:55:49.257Z,22.33
2022-12-12T11:58:32.399Z,18.92
2022-12-12T12:01:10.907Z,26.85
2022-12-12T12:03:52.741Z,22.52
2022-12-12T12:06:48.560Z,22.77
2022-12-12T12:09:24.241Z,23.80
2022-12-12T12:12:12.305Z,23.95
2022-12-12T12:14:59.830Z,22.77
2022-12-12T12:17:57.957Z,22.85
2022-12-12T12:20:35.227Z,23.95
2022-12-12T12:23:20.540Z,25.27
2022-12-12T12:25:58.210Z,23.30
2022-12-12T12:28:49.611Z,22.95
2022-12-12T12:31:16.185Z,23.30
2022-12-12T12:33:46.663Z,23.48
2022-12-12T12:36:23.351Z,22.05
2022-12-12T12:39:11.774Z,24.65
2022-12-12T12:41:56.541Z,22.42
2022-12-12T12:44:50.331Z,21.65
2022-12-12T12:47:32.358Z,23.63
2022-12-12T12:50:14.668Z,23.08
2022-12-12T12:53:24.936Z,22.25
2022-12-12T12:55:55.633Z,21.75
2022-12-12T12:58:27.872Z,20.25
2022-12-12T13:01:05.372Z,20.50
2022-12-12T13:03:41.691Z,21.73
2022-12-12T13:06:47.327Z,22.33
2022-12-12T13:09:44.055Z,21.20
2022-12-12T13:12:24.126Z,16.02
2022-12-12T13:14:59.732Z,24.00
2022-12-12T13:17:48.471Z,22.88
2022-12-12T13:20:22.020Z,18.42
2022-12-12T13:23:12.506Z,18.40
2022-12-12T13:25:52.435Z,18.92
2022-12-12T13:28:27.112Z,18.65
2022-12-12T13:31:31.992Z,18.52
2022-12-12T13:34:19.322Z,18.85
2022-12-12T13:36:48.678Z,19.90
2022-12-12T13:39:37.344Z,20.60
2022-12-12T13:42:06.833Z,19.58
2022-12-12T13:44:38.280Z,17.75
2022-12-12T13:47:13.151Z,19.48
2022-12-12T13:49:46.149Z,17.92
2022-12-12T13:52:32.760Z,18.02
2022-12-12T13:55:11.439Z,17.58
2022-12-12T13:58:08.003Z,15.15
2022-12-12T14:00:39.172Z,13.50
2022-12-12T14:03:07.525Z,16.67
2022-12-12T14:05:48.987Z,15.60
2022-12-12T14:08:15.493Z,17.48
2022-12-12T14:10:45.201Z,15.10
2022-12-12T14:13:23.799Z,14.60
2022-12-12T14:16:07.727Z,13.55
2022-12-12T14:18:57.987Z,14.88
2022-12-12T14:21:41.881Z,15.93
2022-12-12T14:24:33.489Z,13.68
2022-12-12T14:27:02.003Z,12.80
2022-12-12T14:29:31.843Z,15.95
2022-12-12T14:32:04.333Z,19.08
2022-12-12T14:34:49.540Z,12.27
2022-12-12T14:37:28.185Z,13.68
2022-12-12T14:40:01.469Z,15.80
2022-12-12T14:43:20.213Z,17.55
2022-12-12T14:45:39.551Z,14.10
2022-12-12T14:48:08.852Z,17.42
2022-12-12T14:50:37.269Z,17.37
2022-12-12T14:53:09.860Z,15.32
2022-12-12T14:55:36.413Z,18.55
2022-12-12T14:58:03.013Z,17.17
2022-12-12T15:00:31.380Z,20.92
2022-12-12T15:02:58.155Z,21.52
2022-12-12T15:05:25.185Z,21.58
2022-12-12T15:07:59.374Z,20.50
2022-12-12T15:10:30.572Z,20.52
2022-12-12T15:12:57.163Z,19.88
2022-12-12T15:15:30.696Z,20.77
2022-12-12T15:18:00.851Z,23.77
2022-12-12T15:20:29.983Z,20.75
2022-12-12T15:22:57.273Z,23.90
2022-12-12T15:25:26.460Z,25.50
2022-12-12T15:27:56.240Z,20.73
2022-12-12T15:30:32.284Z,20.20
2022-12-12T15:33:00.920Z,22.98
2022-12-12T15:35:28.153Z,23.10
2022-12-12T15:38:11.396Z,20.85
2022-12-12T15:40:39.683Z,24.23
2022-12-12T15:43:16.262Z,25.42
2022-12-12T15:45:50.189Z,24.13
2022-12-12T15:48:19.440Z,22.73
2022-12-12T15:50:46.443Z,31.75
2022-12-12T15:53:34.017Z,24.05
2022-12-12T15:56:09.511Z,24.80
2022-12-12T15:58:44.625Z,24.17
2022-12-12T16:01:21.435Z,26.45
2022-12-12T16:04:00.822Z,27.83
2022-12-12T16:06:33.360Z,28.90
2022-12-12T16:09:00.637Z,27.67
2022-12-12T16:11:53.945Z,24.67
2022-12-12T16:14:38.616Z,26.33
2022-12-12T16:17:24.858Z,25.85
2022-12-12T16:19:54.446Z,23.58
2022-12-12T16:22:30.515Z,20.83
2022-12-12T16:25:12.145Z,24.90
2022-12-12T16:27:39.036Z,23.95
2022-12-12T16:30:06.229Z,31.90
2022-12-12T16:32:33.303Z,28.77
2022-12-12T16:34:59.966Z,25.27
2022-12-12T16:37:27.343Z,24.98
2022-12-12T16:39:53.905Z,25.95
2022-12-12T16:42:21.942Z,23.77
2022-12-12T16:44:48.522Z,24.75
2022-12-12T16:47:21.946Z,24.52
2022-12-12T16:49:49.298Z,25.33
2022-12-12T16:52:18.209Z,21.42
2022-12-12T16:54:52.873Z,23.67
2022-12-12T16:57:21.918Z,24.73
2022-12-12T16:59:48.719Z,22.45
2022-12-12T17:02:18.394Z,25.10
2022-12-12T17:04:45.002Z,25.77
2022-12-12T17:07:11.637Z,28.92
2022-12-12T17:09:38.243Z,27.05
2022-12-12T17:12:05.213Z,23.35
2022-12-12T17:14:32.134Z,27.80
2022-12-12T17:16:58.769Z,25.88
2022-12-12T17:19:26.436Z,22.25
2022-12-12T17:21:53.225Z,24.98
2022-12-12T17:24:20.505Z,24.98
2022-12-12T17:26:48.080Z,23.38
2022-12-12T17:29:14.780Z,24.48
2022-12-12T17:31:41.479Z,23.88
2022-12-12T17:34:08.308Z,19.83
2022-12-12T17:36:34.946Z,22.80
2022-12-12T17:39:02.216Z,21.95
2022-12-12T17:41:28.952Z,22.48
2022-12-12T17:43:56.273Z,22.45
2022-12-12T17:46:24.993Z,21.40
2022-12-12T17:48:53.003Z,23.92
2022-12-12T17:51:23.847Z,24.63
2022-12-12T17:53:52.849Z,20.48
2022-12-12T17:56:22.559Z,21.13
2022-12-12T17:58:49.708Z,23.27
2022-12-12T18:01:17.689Z,22.98
2022-12-12T18:03:45.607Z,20.85
2022-12-12T18:06:12.903Z,19.13
2022-12-12T18:08:40.120Z,17.33
2022-12-12T18:11:12.234Z,20.77
2022-12-12T18:13:39.841Z,23.05
2022-12-12T18:16:08.222Z,23.17
2022-12-12T18:18:35.531Z,21.67
2022-12-12T18:21:10.574Z,26.73
2022-12-12T18:23:40.035Z,24.23
2022-12-12T18:26:09.737Z,25.05
2022-12-12T18:28:36.825Z,28.02
2022-12-12T18:31:04.605Z,24.17
2022-12-12T18:33:31.361Z,19.70
2022-12-12T18:36:05.945Z,24.15
2022-12-12T18:38:33.590Z,23.35
2022-12-12T18:41:00.733Z,23.02
2022-12-12T18:43:28.681Z,21.65
2022-12-12T18:45:56.370Z,26.13
2022-12-12T18:48:23.052Z,19.13
2022-12-12T18:50:49.589Z,23.98
2022-12-12T18:53:16.393Z,20.95
2022-12-12T18:55:43.553Z,23.95
2022-12-12T18:58:11.313Z,23.38
2022-12-12T19:00:40.265Z,15.05
2022-12-12T19:03:07.990Z,20.05
2022-12-12T19:05:40.671Z,23.85
2022-12-12T19:08:07.568Z,22.92
2022-12-12T19:10:38.361Z,23.73
2022-12-12T19:13:04.975Z,22.35
2022-12-12T19:15:31.643Z,20.77
2022-12-12T19:17:58.226Z,23.98
2022-12-12T19:20:25.089Z,21.98
2022-12-12T19:22:51.685Z,19.80
2022-12-12T19:25:18.888Z,26.15
2022-12-12T19:27:45.709Z,25.95
2022-12-12T19:30:13.788Z,26.88
2022-12-12T19:32:41.447Z,24.35
2022-12-12T19:35:08.303Z,24.70
2022-12-12T19:37:37.161Z,26.02
2022-12-12T19:40:04.007Z,23.50
2022-12-12T19:42:30.569Z,28.15
2022-12-12T19:44:57.280Z,22.92
2022-12-12T19:47:23.895Z,23.75
2022-12-12T19:49:50.884Z,21.80
2022-12-12T19:52:17.502Z,23.60
2022-12-12T19:54:44.084Z,22.30
2022-12-12T19:57:10.697Z,21.70
2022-12-12T19:59:37.337Z,26.65
2022-12-12T20:02:05.585Z,22.42
2022-12-12T20:04:32.604Z,22.63
2022-12-12T20:06:59.393Z,22.52
2022-12-12T20:09:28.369Z,25.83
2022-12-12T20:11:57.042Z,24.20
2022-12-12T20:14:26.325Z,23.55
2022-12-12T20:16:54.353Z,23.33
2022-12-12T20:19:23.091Z,23.30
2022-12-12T20:22:05.894Z,22.23
2022-12-12T20:24:33.720Z,25.40
2022-12-12T20:27:03.480Z,23.70
2022-12-12T20:29:30.646Z,26.33
2022-12-12T20:31:59.588Z,23.10
2022-12-12T20:34:26.516Z,18.48
2022-12-12T20:36:55.371Z,27.67
2022-12-12T20:39:22.592Z,22.48
2022-12-12T20:41:50.498Z,23.67
2022-12-12T20:44:17.399Z,25.63
2022-12-12T20:46:45.911Z,28.05
2022-12-12T20:49:15.793Z,26.02
2022-12-12T20:51:58.850Z,17.95
2022-12-12T20:54:27.767Z,21.75
2022-12-12T20:56:54.940Z,25.00
2022-12-12T20:59:21.787Z,21.92
2022-12-12T21:01:48.420Z,20.85
2022-12-12T21:04:15.577Z,21.67
2022-12-12T21:06:47.841Z,22.15
2022-12-12T21:09:22.816Z,18.60
2022-12-12T21:11:52.495Z,22.30
2022-12-12T21:14:19.114Z,23.92
2022-12-12T21:16:45.987Z,22.15
2022-12-12T21:19:13.771Z,16.58
2022-12-12T21:21:42.566Z,21.25
2022-12-12T21:24:11.544Z,23.02
2022-12-12T21:26:38.109Z,18.88
2022-12-12T21:29:04.991Z,22.23
2022-12-12T21:31:36.255Z,20.50
2022-12-12T21:34:04.011Z,25.88
2022-12-12T21:36:32.053Z,21.73
2022-12-12T21:38:59.983Z,20.65
2022-12-12T21:41:27.278Z,21.02
2022-12-12T21:43:55.570Z,22.00
2022-12-12T21:46:25.374Z,19.65
2022-12-12T21:49:28.578Z,18.05
2022-12-12T21:52:04.024Z,21.50
2022-12-12T21:54:31.594Z,21.85
2022-12-12T21:56:59.722Z,17.13
2022-12-12T21:59:26.912Z,18.48
2022-12-12T22:01:55.467Z,20.55
2022-12-12T22:04:22.068Z,20.25
2022-12-12T22:06:48.697Z,19.73
2022-12-12T22:09:15.289Z,20.85
2022-12-12T22:11:49.652Z,17.85
2022-12-12T22:14:19.335Z,13.43
2022-12-12T22:16:46.001Z,23.08
2022-12-12T22:19:14.719Z,20.17
2022-12-12T22:21:43.633Z,21.50
2022-12-12T22:24:10.431Z,18.45
2022-12-12T22:26:39.942Z,18.23
2022-12-12T22:29:10.815Z,19.67
2022-12-12T22:31:39.145Z,22.50
2022-12-12T22:34:12.564Z,21.75
2022-12-12T22:36:39.951Z,19.90
2022-12-12T22:39:08.368Z,20.20
2022-12-12T22:41:35.080Z,18.17
2022-12-12T22:44:04.146Z,17.40
2022-12-12T22:46:31.972Z,20.45
2022-12-12T22:49:00.851Z,18.40
2022-12-12T22:51:30.197Z,20.98
2022-12-12T22:53:58.306Z,21.35
2022-12-12T22:56:25.201Z,20.88
2022-12-12T22:58:51.838Z,19.02
2022-12-12T23:01:20.103Z,16.23
2022-12-12T23:03:47.658Z,17.42
2022-12-12T23:06:17.160Z,17.33
2022-12-12T23:08:48.588Z,16.75
2022-12-12T23:11:16.711Z,20.15
2022-12-12T23:13:44.355Z,17.48
2022-12-12T23:16:16.393Z,20.23
2022-12-12T23:18:44.348Z,17.02
2022-12-12T23:21:16.685Z,11.82
2022-12-12T23:23:44.838Z,12.98
2022-12-12T23:26:17.572Z,16.80
2022-12-12T23:28:44.605Z,14.23
2022-12-12T23:31:17.333Z,16.80
2022-12-12T23:33:45.175Z,16.52
2022-12-12T23:36:14.367Z,17.98
2022-12-12T23:38:42.141Z,17.02
2022-12-12T23:41:11.256Z,17.17
2022-12-12T23:43:38.055Z,12.13
2022-12-12T23:46:07.669Z,14.88
2022-12-12T23:48:34.945Z,17.80
2022-12-12T23:51:01.597Z,14.15
2022-12-12T23:53:31.428Z,13.98
2022-12-12T23:56:04.302Z,16.65
2022-12-12T23:58:30.864Z,12.95
